sensor_id;sensor_type;location;lat;lon;timestamp;temperature;humidity
27004;DHT22;14546;47.590;19.022;2023-07-24T05:37:34;24.40;54.20
27004;DHT22;14546;47.590;19.022;2023-07-24T05:39:59;22.90;86.00
27004;DHT22;14546;47.590;19.022;2023-07-24T05:42:25;22.90;86.00
27004;DHT22;14546;47.590;19.022;2023-07-24T05:44:51;22.90;85.80
27004;DHT22;14546;47.590;19.022;2023-07-24T05:47:16;22.90;85.40
27004;DHT22;14546;47.590;19.022;2023-07-24T05:49:42;23.00;85.30
27004;DHT22;14546;47.590;19.022;2023-07-24T05:52:07;23.10;85.30
27004;DHT22;14546;47.590;19.022;2023-07-24T05:54:33;23.10;85.00
27004;DHT22;14546;47.590;19.022;2023-07-24T05:56:59;23.20;84.90
27004;DHT22;14546;47.590;19.022;2023-07-24T05:59:24;23.20;85.00
27004;DHT22;14546;47.590;19.022;2023-07-24T06:01:50;23.30;85.20
27004;DHT22;14546;47.590;19.022;2023-07-24T06:04:15;23.40;85.30
27004;DHT22;14546;47.590;19.022;2023-07-24T06:06:41;23.30;84.90
27004;DHT22;14546;47.590;19.022;2023-07-24T06:09:08;23.40;84.80
27004;DHT22;14546;47.590;19.022;2023-07-24T06:11:34;23.50;84.80
27004;DHT22;14546;47.590;19.022;2023-07-24T06:13:59;23.50;84.70
27004;DHT22;14546;47.590;19.022;2023-07-24T06:16:25;23.60;84.60
27004;DHT22;14546;47.590;19.022;2023-07-24T06:18:50;23.60;84.10
27004;DHT22;14546;47.590;19.022;2023-07-24T06:21:16;23.70;83.90
27004;DHT22;14546;47.590;19.022;2023-07-24T06:23:42;23.70;83.60
27004;DHT22;14546;47.590;19.022;2023-07-24T06:26:07;23.80;83.60
27004;DHT22;14546;47.590;19.022;2023-07-24T06:28:33;23.90;83.60
27004;DHT22;14546;47.590;19.022;2023-07-24T06:30:58;24.00;83.60
27004;DHT22;14546;47.590;19.022;2023-07-24T06:33:24;24.00;83.40
27004;DHT22;14546;47.590;19.022;2023-07-24T06:43:08;24.10;83.30
27004;DHT22;14546;47.590;19.022;2023-07-24T06:45:34;24.30;82.60
27004;DHT22;14546;47.590;19.022;2023-07-24T06:48:00;24.30;82.40
27004;DHT22;14546;47.590;19.022;2023-07-24T06:50:25;24.40;82.20
27004;DHT22;14546;47.590;19.022;2023-07-24T06:52:51;24.40;82.70
27004;DHT22;14546;47.590;19.022;2023-07-24T06:55:19;24.50;81.90
27004;DHT22;14546;47.590;19.022;2023-07-24T06:57:45;24.60;81.70
27004;DHT22;14546;47.590;19.022;2023-07-24T07:00:11;24.60;81.60
27004;DHT22;14546;47.590;19.022;2023-07-24T07:02:37;24.70;81.40
27004;DHT22;14546;47.590;19.022;2023-07-24T07:05:04;24.80;81.00
27004;DHT22;14546;47.590;19.022;2023-07-24T07:07:29;24.80;80.60
27004;DHT22;14546;47.590;19.022;2023-07-24T07:09:55;24.90;80.40
27004;DHT22;14546;47.590;19.022;2023-07-24T07:12:21;25.00;80.40
27004;DHT22;14546;47.590;19.022;2023-07-24T07:22:05;25.00;80.20
27004;DHT22;14546;47.590;19.022;2023-07-24T07:24:30;25.40;79.70
27004;DHT22;14546;47.590;19.022;2023-07-24T07:26:56;25.50;79.20
27004;DHT22;14546;47.590;19.022;2023-07-24T18:30:26;42.90;31.70
27004;DHT22;14546;47.590;19.022;2023-07-24T18:32:56;29.80;50.90
27004;DHT22;14546;47.590;19.022;2023-07-24T18:35:22;29.40;50.20
27004;DHT22;14546;47.590;19.022;2023-07-24T18:37:48;29.30;50.30
27004;DHT22;14546;47.590;19.022;2023-07-24T18:40:14;29.30;50.50
27004;DHT22;14546;47.590;19.022;2023-07-24T18:42:40;29.20;50.50
27004;DHT22;14546;47.590;19.022;2023-07-24T18:45:06;29.20;50.60
27004;DHT22;14546;47.590;19.022;2023-07-24T18:47:33;29.20;50.70
27004;DHT22;14546;47.590;19.022;2023-07-24T18:50:18;29.10;51.00
27004;DHT22;14546;47.590;19.022;2023-07-24T18:52:44;29.10;51.10
27004;DHT22;14546;47.590;19.022;2023-07-24T18:55:11;29.00;51.30
27004;DHT22;14546;47.590;19.022;2023-07-24T18:57:37;29.00;51.50
27004;DHT22;14546;47.590;19.022;2023-07-24T19:00:05;29.00;51.70
27004;DHT22;14546;47.590;19.022;2023-07-24T19:02:31;28.90;51.80
27004;DHT22;14546;47.590;19.022;2023-07-24T19:04:57;28.90;52.20
27004;DHT22;14546;47.590;19.022;2023-07-24T19:07:23;28.80;52.20
27004;DHT22;14546;47.590;19.022;2023-07-24T19:09:49;28.80;52.50
27004;DHT22;14546;47.590;19.022;2023-07-24T19:12:15;28.70;52.60
27004;DHT22;14546;47.590;19.022;2023-07-24T19:14:42;28.70;52.90
27004;DHT22;14546;47.590;19.022;2023-07-24T19:17:09;28.60;53.10
27004;DHT22;14546;47.590;19.022;2023-07-24T19:19:41;28.60;53.40
27004;DHT22;14546;47.590;19.022;2023-07-24T19:22:06;28.50;53.70
27004;DHT22;14546;47.590;19.022;2023-07-24T19:24:35;28.50;54.00
27004;DHT22;14546;47.590;19.022;2023-07-24T19:27:02;28.50;54.30
27004;DHT22;14546;47.590;19.022;2023-07-24T19:29:28;28.40;54.40
27004;DHT22;14546;47.590;19.022;2023-07-24T19:31:54;28.40;54.50
27004;DHT22;14546;47.590;19.022;2023-07-24T19:34:20;28.40;54.80
27004;DHT22;14546;47.590;19.022;2023-07-24T19:36:46;28.30;55.00
27004;DHT22;14546;47.590;19.022;2023-07-24T19:39:13;28.30;55.40
27004;DHT22;14546;47.590;19.022;2023-07-24T19:41:39;28.30;55.50
27004;DHT22;14546;47.590;19.022;2023-07-24T19:44:05;28.20;55.80
27004;DHT22;14546;47.590;19.022;2023-07-24T19:46:31;28.20;56.00
27004;DHT22;14546;47.590;19.022;2023-07-24T19:48:59;28.20;56.10
27004;DHT22;14546;47.590;19.022;2023-07-24T19:51:25;28.10;56.40
27004;DHT22;14546;47.590;19.022;2023-07-24T19:53:52;28.10;56.50
27004;DHT22;14546;47.590;19.022;2023-07-24T19:56:18;28.10;56.50
27004;DHT22;14546;47.590;19.022;2023-07-24T19:58:44;28.10;56.80
27004;DHT22;14546;47.590;19.022;2023-07-24T20:01:10;28.10;56.90
27004;DHT22;14546;47.590;19.022;2023-07-24T20:03:36;28.10;57.30
27004;DHT22;14546;47.590;19.022;2023-07-24T20:06:03;28.00;57.30
27004;DHT22;14546;47.590;19.022;2023-07-24T20:08:33;28.00;57.50
27004;DHT22;14546;47.590;19.022;2023-07-24T20:11:02;28.00;58.00
27004;DHT22;14546;47.590;19.022;2023-07-24T20:13:31;28.00;57.20
27004;DHT22;14546;47.590;19.022;2023-07-24T20:15:57;27.90;56.70
27004;DHT22;14546;47.590;19.022;2023-07-24T20:18:23;27.90;56.70
27004;DHT22;14546;47.590;19.022;2023-07-24T20:20:50;27.90;56.40
27004;DHT22;14546;47.590;19.022;2023-07-24T20:23:17;27.90;56.20
27004;DHT22;14546;47.590;19.022;2023-07-24T20:25:46;27.90;56.10
27004;DHT22;14546;47.590;19.022;2023-07-24T20:28:13;27.90;55.80
27004;DHT22;14546;47.590;19.022;2023-07-24T20:30:39;27.90;55.70
27004;DHT22;14546;47.590;19.022;2023-07-24T20:33:05;27.80;55.50
27004;DHT22;14546;47.590;19.022;2023-07-24T20:35:32;27.80;55.50
27004;DHT22;14546;47.590;19.022;2023-07-24T20:37:59;27.80;55.50
27004;DHT22;14546;47.590;19.022;2023-07-24T20:40:26;27.70;55.50
27004;DHT22;14546;47.590;19.022;2023-07-24T20:42:52;27.70;55.60
27004;DHT22;14546;47.590;19.022;2023-07-24T20:45:20;27.60;55.60
27004;DHT22;14546;47.590;19.022;2023-07-24T20:47:46;27.50;55.60
27004;DHT22;14546;47.590;19.022;2023-07-24T20:50:12;27.50;55.60
27004;DHT22;14546;47.590;19.022;2023-07-24T20:52:38;27.40;55.50
27004;DHT22;14546;47.590;19.022;2023-07-24T20:55:05;27.40;55.50
27004;DHT22;14546;47.590;19.022;2023-07-24T20:57:32;27.40;55.70
27004;DHT22;14546;47.590;19.022;2023-07-24T20:59:58;27.30;55.80
27004;DHT22;14546;47.590;19.022;2023-07-24T21:02:23;27.30;56.10
27004;DHT22;14546;47.590;19.022;2023-07-24T21:04:49;27.10;56.20
27004;DHT22;14546;47.590;19.022;2023-07-24T21:07:15;27.10;57.10
27004;DHT22;14546;47.590;19.022;2023-07-24T21:09:41;27.00;56.80
27004;DHT22;14546;47.590;19.022;2023-07-24T21:12:06;26.90;56.80
27004;DHT22;14546;47.590;19.022;2023-07-24T21:14:33;26.80;56.90
27004;DHT22;14546;47.590;19.022;2023-07-24T21:17:00;26.70;57.20
27004;DHT22;14546;47.590;19.022;2023-07-24T21:19:25;26.60;57.00
27004;DHT22;14546;47.590;19.022;2023-07-24T21:21:51;26.60;57.00
27004;DHT22;14546;47.590;19.022;2023-07-24T21:24:17;26.50;57.20
27004;DHT22;14546;47.590;19.022;2023-07-24T21:26:43;26.40;57.50
27004;DHT22;14546;47.590;19.022;2023-07-24T21:29:08;26.30;57.90
27004;DHT22;14546;47.590;19.022;2023-07-24T21:31:34;26.20;58.30
27004;DHT22;14546;47.590;19.022;2023-07-24T21:33:59;26.10;58.40
27004;DHT22;14546;47.590;19.022;2023-07-24T21:36:25;26.10;58.30
27004;DHT22;14546;47.590;19.022;2023-07-24T21:38:51;26.00;58.20
27004;DHT22;14546;47.590;19.022;2023-07-24T21:41:17;25.90;58.10
27004;DHT22;14546;47.590;19.022;2023-07-24T21:43:42;25.80;58.00
27004;DHT22;14546;47.590;19.022;2023-07-24T21:46:08;25.80;58.10
27004;DHT22;14546;47.590;19.022;2023-07-24T21:48:34;25.80;58.10
27004;DHT22;14546;47.590;19.022;2023-07-24T21:51:00;25.80;58.20
27004;DHT22;14546;47.590;19.022;2023-07-24T21:53:26;25.70;58.20
27004;DHT22;14546;47.590;19.022;2023-07-24T21:55:52;25.70;58.20
27004;DHT22;14546;47.590;19.022;2023-07-24T21:58:17;25.70;58.30
27004;DHT22;14546;47.590;19.022;2023-07-24T22:00:43;25.70;58.20
27004;DHT22;14546;47.590;19.022;2023-07-24T22:03:09;25.60;58.10
27004;DHT22;14546;47.590;19.022;2023-07-24T22:05:34;25.60;58.00
27004;DHT22;14546;47.590;19.022;2023-07-24T22:08:00;25.60;57.80
27004;DHT22;14546;47.590;19.022;2023-07-24T22:10:27;25.60;57.80
27004;DHT22;14546;47.590;19.022;2023-07-24T22:12:53;25.60;57.70
27004;DHT22;14546;47.590;19.022;2023-07-24T22:15:18;25.60;57.40
27004;DHT22;14546;47.590;19.022;2023-07-24T22:17:44;25.60;57.10
27004;DHT22;14546;47.590;19.022;2023-07-24T22:20:10;25.60;57.00
27004;DHT22;14546;47.590;19.022;2023-07-24T22:22:37;25.70;57.00
27004;DHT22;14546;47.590;19.022;2023-07-24T22:25:04;25.70;56.80
27004;DHT22;14546;47.590;19.022;2023-07-24T22:27:30;25.60;56.70
27004;DHT22;14546;47.590;19.022;2023-07-24T22:29:55;25.70;56.70
27004;DHT22;14546;47.590;19.022;2023-07-24T22:32:21;25.60;57.20
27004;DHT22;14546;47.590;19.022;2023-07-24T22:34:50;25.60;56.50
27004;DHT22;14546;47.590;19.022;2023-07-24T22:37:17;25.60;56.50
27004;DHT22;14546;47.590;19.022;2023-07-24T22:39:42;25.60;56.50
27004;DHT22;14546;47.590;19.022;2023-07-24T22:42:08;25.60;56.50
27004;DHT22;14546;47.590;19.022;2023-07-24T22:44:35;25.60;56.50
27004;DHT22;14546;47.590;19.022;2023-07-24T22:47:00;25.60;56.60
27004;DHT22;14546;47.590;19.022;2023-07-24T22:49:26;25.50;56.60
27004;DHT22;14546;47.590;19.022;2023-07-24T22:51:52;25.60;56.70
27004;DHT22;14546;47.590;19.022;2023-07-24T22:54:17;25.50;56.60
27004;DHT22;14546;47.590;19.022;2023-07-24T22:56:43;25.50;56.60
27004;DHT22;14546;47.590;19.022;2023-07-24T22:59:25;25.50;56.60
27004;DHT22;14546;47.590;19.022;2023-07-24T23:01:55;25.50;56.70
27004;DHT22;14546;47.590;19.022;2023-07-24T23:04:22;25.50;56.70
27004;DHT22;14546;47.590;19.022;2023-07-24T23:06:53;25.40;56.80
27004;DHT22;14546;47.590;19.022;2023-07-24T23:09:22;25.40;57.00
27004;DHT22;14546;47.590;19.022;2023-07-24T23:11:48;25.30;57.10
27004;DHT22;14546;47.590;19.022;2023-07-24T23:14:14;25.20;57.20
27004;DHT22;14546;47.590;19.022;2023-07-24T23:16:39;25.20;57.40
27004;DHT22;14546;47.590;19.022;2023-07-24T23:19:05;25.20;57.60
27004;DHT22;14546;47.590;19.022;2023-07-24T23:21:31;25.00;57.60
27004;DHT22;14546;47.590;19.022;2023-07-24T23:23:56;25.00;57.80
